North Bay Airport
CYYB : now visible

Aeroporto :











RITROVATECI SU...

 
LOGIN :

Iscrizione | Disclaimer

   EN    FR    IT 

 









Sommario :    VFR   VFR Marginale   IFR   IFR Intensivo   IFR Molto Intensivo
Visibilità : 
Base nubi : 
>= 8 km
>= 3000ft
5 / 8 km
1000 / 3000 ft
1500m / 5 km
500 / 1000 ft
800 / 1500m
200 / 500 ft
< 800m
< 200 ft
Simboli :   Temporali  Nebbia  Neve Forte  Precipitazioni Forti  Vento > 20 kt






- Altitudine del aeroporto : 1215 ft
- Codice IATA : YYB


CYYB - North Bay

ULTIMO METAR :
  • 271827Z 26004KT 10SM SCT011 OVC035 02/01 A2993 RMK SC4SC4 SLP151

METARs OBSOLETI :
  • 271800Z 26004KT 10SM BKN007 OVC029 02/01 A2993 RMK SC5SC3 SLP151
  • 271745Z 23005KT 10SM -DZ BKN007 OVC021 02/01 A2993 RMK SC6SC2 SLP152
  • 271700Z 23005KT 15SM BKN007 OVC029 02/01 A2994 RMK SC5SC3 SLP155
  • 271653Z 22005KT 15SM BKN007 OVC029 03/02 A2994 RMK SC5SC3 SLP156
  • 271600Z 21005KT 15SM FEW007 OVC036 02/01 A2996 RMK SC2SC6 SLP163

TAF AMD TAF CYYB
Valido dal 27 a 18 ore il 28 a 02 ore UTC


271834Z 2718/2802 26005KT P6SM SCT012 OVC030
TEMPO 2718/2724 3SM -SHRA BR SCT007 OVC012
FM280000 24006KT 6SM -RA BR OVC015
TEMPO 2800/2802 2SM -DZ BR OVC005 RMK NXT FCST BY 272000Z
FIR CZYZ / America del Nord



MetMap, La meteo Aeronautica in un colpo d'occhio ! - Copyright ORBIFLY Dicembre 2007 - Disclaimer

ORBIFLY MET'MAP TEAM :

Programmazione e sviluppo : Alexandra Zaïnal
Concezione : Baudouin d'Aumeries
Aiuto per la programmazione : Marc-Olivier Méhu
Supporto tecnico e logistico : Manuel Goepfert
Aiuto per la traduzione : Arnaldo La Scala

Contatto : metmap@orbifly.com




FONTI E CREDITI :

   NOAA       Earth
Advisory